sensor_id;sensor_type;location;lat;lon;timestamp;P1;durP1;ratioP1;P2;durP2;ratioP2
60665;SDS011;59128;44.642;21.188;2022-09-09T00:00:53;6.43;;;5.15;;
60665;SDS011;59128;44.642;21.188;2022-09-09T00:03:22;6.72;;;5.38;;
60665;SDS011;59128;44.642;21.188;2022-09-09T00:08:33;9.55;;;5.88;;
60665;SDS011;59128;44.642;21.188;2022-09-09T00:11:04;6.55;;;4.75;;
60665;SDS011;59128;44.642;21.188;2022-09-09T00:13:33;6.40;;;5.60;;
60665;SDS011;59128;44.642;21.188;2022-09-09T00:16:03;7.55;;;5.18;;
60665;SDS011;59128;44.642;21.188;2022-09-09T00:21:47;8.43;;;5.70;;
60665;SDS011;59128;44.642;21.188;2022-09-09T00:24:31;6.85;;;5.55;;
60665;SDS011;59128;44.642;21.188;2022-09-09T00:27:07;9.23;;;5.57;;
60665;SDS011;59128;44.642;21.188;2022-09-09T00:32:16;10.57;;;6.68;;
60665;SDS011;59128;44.642;21.188;2022-09-09T00:34:54;10.30;;;7.45;;
60665;SDS011;59128;44.642;21.188;2022-09-09T00:37:22;12.25;;;7.95;;
60665;SDS011;59128;44.642;21.188;2022-09-09T00:39:50;10.95;;;8.63;;
60665;SDS011;59128;44.642;21.188;2022-09-09T00:47:24;23.05;;;13.30;;
60665;SDS011;59128;44.642;21.188;2022-09-09T00:49:59;32.17;;;16.20;;
60665;SDS011;59128;44.642;21.188;2022-09-09T00:55:08;21.95;;;14.25;;
60665;SDS011;59128;44.642;21.188;2022-09-09T00:57:40;23.23;;;13.77;;
60665;SDS011;59128;44.642;21.188;2022-09-09T01:00:25;23.95;;;12.40;;
60665;SDS011;59128;44.642;21.188;2022-09-09T01:05:39;14.30;;;10.05;;
60665;SDS011;59128;44.642;21.188;2022-09-09T01:08:30;18.13;;;10.70;;
60665;SDS011;59128;44.642;21.188;2022-09-09T01:10:56;17.13;;;9.05;;
60665;SDS011;59128;44.642;21.188;2022-09-09T01:13:25;11.85;;;8.38;;
60665;SDS011;59128;44.642;21.188;2022-09-09T01:15:52;12.77;;;8.40;;
60665;SDS011;59128;44.642;21.188;2022-09-09T01:18:20;10.25;;;7.57;;
60665;SDS011;59128;44.642;21.188;2022-09-09T01:28:34;10.60;;;6.50;;
60665;SDS011;59128;44.642;21.188;2022-09-09T01:31:03;8.27;;;6.40;;
60665;SDS011;59128;44.642;21.188;2022-09-09T01:33:29;7.20;;;5.95;;
60665;SDS011;59128;44.642;21.188;2022-09-09T01:38:22;8.00;;;6.10;;
60665;SDS011;59128;44.642;21.188;2022-09-09T01:40:49;7.22;;;6.20;;
60665;SDS011;59128;44.642;21.188;2022-09-09T01:43:17;8.52;;;5.57;;
60665;SDS011;59128;44.642;21.188;2022-09-09T01:45:44;6.25;;;5.65;;
60665;SDS011;59128;44.642;21.188;2022-09-09T01:48:11;11.82;;;6.28;;
60665;SDS011;59128;44.642;21.188;2022-09-09T01:50:37;6.32;;;5.55;;
60665;SDS011;59128;44.642;21.188;2022-09-09T01:53:03;6.47;;;5.68;;
60665;SDS011;59128;44.642;21.188;2022-09-09T01:55:30;6.45;;;5.18;;
60665;SDS011;59128;44.642;21.188;2022-09-09T01:58:10;5.93;;;5.22;;
60665;SDS011;59128;44.642;21.188;2022-09-09T02:00:38;7.50;;;5.55;;
60665;SDS011;59128;44.642;21.188;2022-09-09T02:05:37;6.30;;;5.50;;
60665;SDS011;59128;44.642;21.188;2022-09-09T02:08:08;8.13;;;6.00;;
60665;SDS011;59128;44.642;21.188;2022-09-09T02:13:10;7.82;;;5.85;;
60665;SDS011;59128;44.642;21.188;2022-09-09T02:18:06;6.80;;;5.60;;
60665;SDS011;59128;44.642;21.188;2022-09-09T02:20:34;7.38;;;5.55;;
60665;SDS011;59128;44.642;21.188;2022-09-09T02:23:02;7.63;;;5.35;;
60665;SDS011;59128;44.642;21.188;2022-09-09T02:25:29;6.57;;;6.00;;
60665;SDS011;59128;44.642;21.188;2022-09-09T02:27:55;6.65;;;5.13;;
60665;SDS011;59128;44.642;21.188;2022-09-09T02:30:25;7.78;;;5.28;;
60665;SDS011;59128;44.642;21.188;2022-09-09T02:32:53;6.10;;;4.93;;
60665;SDS011;59128;44.642;21.188;2022-09-09T02:35:22;6.50;;;5.70;;
60665;SDS011;59128;44.642;21.188;2022-09-09T02:37:49;7.68;;;5.22;;
60665;SDS011;59128;44.642;21.188;2022-09-09T02:40:17;9.20;;;5.30;;
60665;SDS011;59128;44.642;21.188;2022-09-09T02:42:44;7.93;;;5.45;;
60665;SDS011;59128;44.642;21.188;2022-09-09T02:45:12;8.98;;;5.95;;
60665;SDS011;59128;44.642;21.188;2022-09-09T02:55:15;8.32;;;5.93;;
60665;SDS011;59128;44.642;21.188;2022-09-09T02:57:42;9.48;;;6.45;;
60665;SDS011;59128;44.642;21.188;2022-09-09T03:00:10;10.25;;;6.47;;
60665;SDS011;59128;44.642;21.188;2022-09-09T03:02:36;7.28;;;5.88;;
60665;SDS011;59128;44.642;21.188;2022-09-09T03:05:03;9.65;;;6.35;;
60665;SDS011;59128;44.642;21.188;2022-09-09T03:07:30;10.40;;;7.10;;
60665;SDS011;59128;44.642;21.188;2022-09-09T03:09:56;10.02;;;6.38;;
60665;SDS011;59128;44.642;21.188;2022-09-09T03:12:23;8.57;;;6.57;;
60665;SDS011;59128;44.642;21.188;2022-09-09T03:14:49;12.13;;;7.45;;
60665;SDS011;59128;44.642;21.188;2022-09-09T03:17:15;9.15;;;7.20;;
60665;SDS011;59128;44.642;21.188;2022-09-09T03:19:41;9.85;;;6.70;;
60665;SDS011;59128;44.642;21.188;2022-09-09T03:22:09;10.15;;;7.47;;
60665;SDS011;59128;44.642;21.188;2022-09-09T03:24:36;11.50;;;7.70;;
60665;SDS011;59128;44.642;21.188;2022-09-09T03:27:02;8.85;;;7.20;;
60665;SDS011;59128;44.642;21.188;2022-09-09T03:29:28;12.05;;;7.68;;
60665;SDS011;59128;44.642;21.188;2022-09-09T03:31:54;10.43;;;7.53;;
60665;SDS011;59128;44.642;21.188;2022-09-09T03:34:20;9.68;;;7.15;;
60665;SDS011;59128;44.642;21.188;2022-09-09T03:36:46;12.27;;;8.10;;
60665;SDS011;59128;44.642;21.188;2022-09-09T03:39:14;10.73;;;7.68;;
60665;SDS011;59128;44.642;21.188;2022-09-09T03:41:40;10.75;;;7.88;;
60665;SDS011;59128;44.642;21.188;2022-09-09T03:44:06;12.57;;;7.88;;
60665;SDS011;59128;44.642;21.188;2022-09-09T03:46:32;10.73;;;8.02;;
60665;SDS011;59128;44.642;21.188;2022-09-09T03:48:58;17.58;;;8.32;;
60665;SDS011;59128;44.642;21.188;2022-09-09T03:51:25;18.42;;;9.02;;
60665;SDS011;59128;44.642;21.188;2022-09-09T03:53:51;17.75;;;9.05;;
60665;SDS011;59128;44.642;21.188;2022-09-09T03:56:23;14.13;;;7.75;;
60665;SDS011;59128;44.642;21.188;2022-09-09T03:58:49;18.33;;;8.48;;
60665;SDS011;59128;44.642;21.188;2022-09-09T04:01:15;15.52;;;8.30;;
60665;SDS011;59128;44.642;21.188;2022-09-09T04:03:43;13.98;;;8.35;;
60665;SDS011;59128;44.642;21.188;2022-09-09T04:06:10;15.02;;;8.43;;
60665;SDS011;59128;44.642;21.188;2022-09-09T04:08:37;16.55;;;9.73;;
60665;SDS011;59128;44.642;21.188;2022-09-09T04:11:03;23.55;;;12.88;;
60665;SDS011;59128;44.642;21.188;2022-09-09T04:13:31;34.92;;;19.17;;
60665;SDS011;59128;44.642;21.188;2022-09-09T04:15:59;40.30;;;22.40;;
60665;SDS011;59128;44.642;21.188;2022-09-09T04:18:25;42.30;;;25.33;;
60665;SDS011;59128;44.642;21.188;2022-09-09T04:20:53;65.13;;;33.65;;
60665;SDS011;59128;44.642;21.188;2022-09-09T04:23:22;63.38;;;33.53;;
60665;SDS011;59128;44.642;21.188;2022-09-09T04:25:52;66.93;;;36.28;;
60665;SDS011;59128;44.642;21.188;2022-09-09T04:28:19;74.20;;;39.40;;
60665;SDS011;59128;44.642;21.188;2022-09-09T04:30:46;71.25;;;37.30;;
60665;SDS011;59128;44.642;21.188;2022-09-09T04:33:12;59.28;;;34.88;;
60665;SDS011;59128;44.642;21.188;2022-09-09T04:35:39;58.70;;;32.55;;
60665;SDS011;59128;44.642;21.188;2022-09-09T04:38:05;52.78;;;30.02;;
60665;SDS011;59128;44.642;21.188;2022-09-09T04:40:34;46.80;;;25.00;;
60665;SDS011;59128;44.642;21.188;2022-09-09T04:43:01;38.67;;;21.52;;
60665;SDS011;59128;44.642;21.188;2022-09-09T04:45:31;34.20;;;18.52;;
60665;SDS011;59128;44.642;21.188;2022-09-09T04:47:57;24.05;;;14.32;;
60665;SDS011;59128;44.642;21.188;2022-09-09T04:50:24;19.73;;;13.00;;
60665;SDS011;59128;44.642;21.188;2022-09-09T04:52:50;19.58;;;11.88;;
60665;SDS011;59128;44.642;21.188;2022-09-09T04:55:16;21.60;;;11.65;;
60665;SDS011;59128;44.642;21.188;2022-09-09T04:57:42;15.60;;;9.60;;
60665;SDS011;59128;44.642;21.188;2022-09-09T05:00:08;16.33;;;9.23;;
60665;SDS011;59128;44.642;21.188;2022-09-09T05:02:38;14.02;;;8.32;;
60665;SDS011;59128;44.642;21.188;2022-09-09T05:05:05;21.35;;;8.68;;
60665;SDS011;59128;44.642;21.188;2022-09-09T05:07:31;14.80;;;7.45;;
60665;SDS011;59128;44.642;21.188;2022-09-09T05:09:57;16.00;;;8.25;;
60665;SDS011;59128;44.642;21.188;2022-09-09T05:12:23;9.02;;;7.00;;
60665;SDS011;59128;44.642;21.188;2022-09-09T05:14:50;11.38;;;6.82;;
60665;SDS011;59128;44.642;21.188;2022-09-09T05:17:16;12.93;;;7.82;;
60665;SDS011;59128;44.642;21.188;2022-09-09T05:19:43;11.70;;;8.35;;
60665;SDS011;59128;44.642;21.188;2022-09-09T05:22:09;10.73;;;8.00;;
60665;SDS011;59128;44.642;21.188;2022-09-09T05:24:37;12.60;;;8.27;;
60665;SDS011;59128;44.642;21.188;2022-09-09T05:27:03;15.93;;;7.95;;
60665;SDS011;59128;44.642;21.188;2022-09-09T05:29:30;11.05;;;8.35;;
60665;SDS011;59128;44.642;21.188;2022-09-09T05:31:58;17.63;;;8.18;;
60665;SDS011;59128;44.642;21.188;2022-09-09T05:34:24;14.68;;;8.35;;
60665;SDS011;59128;44.642;21.188;2022-09-09T05:36:50;28.65;;;9.70;;
60665;SDS011;59128;44.642;21.188;2022-09-09T05:39:17;28.58;;;9.20;;
60665;SDS011;59128;44.642;21.188;2022-09-09T05:41:44;24.55;;;9.27;;
60665;SDS011;59128;44.642;21.188;2022-09-09T05:44:10;22.15;;;8.95;;
60665;SDS011;59128;44.642;21.188;2022-09-09T05:46:36;20.27;;;8.80;;
60665;SDS011;59128;44.642;21.188;2022-09-09T05:49:02;18.55;;;8.27;;
60665;SDS011;59128;44.642;21.188;2022-09-09T05:51:30;18.10;;;8.88;;
60665;SDS011;59128;44.642;21.188;2022-09-09T05:53:56;20.35;;;8.73;;
60665;SDS011;59128;44.642;21.188;2022-09-09T05:56:26;17.27;;;8.95;;
60665;SDS011;59128;44.642;21.188;2022-09-09T05:58:53;16.25;;;8.98;;
60665;SDS011;59128;44.642;21.188;2022-09-09T06:01:21;15.07;;;8.45;;
60665;SDS011;59128;44.642;21.188;2022-09-09T06:03:48;14.70;;;9.40;;
60665;SDS011;59128;44.642;21.188;2022-09-09T06:06:15;12.75;;;8.40;;
60665;SDS011;59128;44.642;21.188;2022-09-09T06:08:43;13.25;;;9.10;;
60665;SDS011;59128;44.642;21.188;2022-09-09T06:11:10;13.07;;;8.93;;
60665;SDS011;59128;44.642;21.188;2022-09-09T06:13:37;11.30;;;7.93;;
60665;SDS011;59128;44.642;21.188;2022-09-09T06:16:05;11.45;;;9.20;;
60665;SDS011;59128;44.642;21.188;2022-09-09T06:18:32;12.73;;;8.52;;
60665;SDS011;59128;44.642;21.188;2022-09-09T06:21:02;12.50;;;8.10;;
60665;SDS011;59128;44.642;21.188;2022-09-09T06:23:29;14.05;;;8.98;;
60665;SDS011;59128;44.642;21.188;2022-09-09T06:28:34;11.13;;;7.45;;
60665;SDS011;59128;44.642;21.188;2022-09-09T06:31:01;10.68;;;7.75;;
60665;SDS011;59128;44.642;21.188;2022-09-09T06:33:30;12.25;;;7.35;;
60665;SDS011;59128;44.642;21.188;2022-09-09T06:35:57;10.18;;;7.53;;
60665;SDS011;59128;44.642;21.188;2022-09-09T06:38:23;14.30;;;8.23;;
60665;SDS011;59128;44.642;21.188;2022-09-09T06:40:52;18.27;;;8.07;;
60665;SDS011;59128;44.642;21.188;2022-09-09T06:43:20;13.70;;;7.53;;
60665;SDS011;59128;44.642;21.188;2022-09-09T06:48:42;8.68;;;7.38;;
60665;SDS011;59128;44.642;21.188;2022-09-09T06:51:12;14.55;;;7.00;;
60665;SDS011;59128;44.642;21.188;2022-09-09T06:53:39;10.52;;;6.93;;
60665;SDS011;59128;44.642;21.188;2022-09-09T06:56:22;9.90;;;7.65;;
60665;SDS011;59128;44.642;21.188;2022-09-09T06:58:48;11.40;;;6.93;;
60665;SDS011;59128;44.642;21.188;2022-09-09T07:01:16;11.77;;;7.10;;
60665;SDS011;59128;44.642;21.188;2022-09-09T07:03:44;8.60;;;7.10;;
60665;SDS011;59128;44.642;21.188;2022-09-09T07:06:14;15.80;;;7.10;;
60665;SDS011;59128;44.642;21.188;2022-09-09T07:08:42;10.13;;;7.32;;
60665;SDS011;59128;44.642;21.188;2022-09-09T07:11:08;11.77;;;7.00;;
60665;SDS011;59128;44.642;21.188;2022-09-09T07:13:34;10.27;;;7.03;;
60665;SDS011;59128;44.642;21.188;2022-09-09T07:16:08;12.48;;;7.43;;
60665;SDS011;59128;44.642;21.188;2022-09-09T07:18:34;12.60;;;7.30;;
60665;SDS011;59128;44.642;21.188;2022-09-09T07:21:01;12.52;;;8.45;;
60665;SDS011;59128;44.642;21.188;2022-09-09T07:23:28;11.90;;;7.65;;
60665;SDS011;59128;44.642;21.188;2022-09-09T07:25:55;10.02;;;7.20;;
60665;SDS011;59128;44.642;21.188;2022-09-09T07:28:21;12.10;;;7.50;;
60665;SDS011;59128;44.642;21.188;2022-09-09T07:30:57;11.05;;;7.70;;
60665;SDS011;59128;44.642;21.188;2022-09-09T07:33:24;12.82;;;7.45;;
60665;SDS011;59128;44.642;21.188;2022-09-09T07:35:51;11.10;;;7.38;;
60665;SDS011;59128;44.642;21.188;2022-09-09T07:38:17;13.55;;;8.38;;
60665;SDS011;59128;44.642;21.188;2022-09-09T07:40:43;9.50;;;7.47;;
60665;SDS011;59128;44.642;21.188;2022-09-09T07:43:10;11.18;;;6.88;;
60665;SDS011;59128;44.642;21.188;2022-09-09T07:45:37;8.93;;;6.93;;
60665;SDS011;59128;44.642;21.188;2022-09-09T07:48:03;12.60;;;7.20;;
60665;SDS011;59128;44.642;21.188;2022-09-09T07:50:29;11.25;;;7.43;;
60665;SDS011;59128;44.642;21.188;2022-09-09T07:52:55;12.70;;;7.53;;
60665;SDS011;59128;44.642;21.188;2022-09-09T07:55:21;11.95;;;7.25;;
60665;SDS011;59128;44.642;21.188;2022-09-09T07:57:52;13.77;;;8.50;;
60665;SDS011;59128;44.642;21.188;2022-09-09T08:00:18;10.32;;;7.93;;
60665;SDS011;59128;44.642;21.188;2022-09-09T08:02:47;11.52;;;7.25;;
60665;SDS011;59128;44.642;21.188;2022-09-09T08:05:13;13.43;;;7.38;;
60665;SDS011;59128;44.642;21.188;2022-09-09T08:07:40;10.32;;;7.15;;
60665;SDS011;59128;44.642;21.188;2022-09-09T08:10:06;12.10;;;7.80;;
60665;SDS011;59128;44.642;21.188;2022-09-09T08:12:32;12.02;;;8.02;;
60665;SDS011;59128;44.642;21.188;2022-09-09T08:14:59;23.08;;;9.93;;
60665;SDS011;59128;44.642;21.188;2022-09-09T08:17:25;15.05;;;9.23;;
60665;SDS011;59128;44.642;21.188;2022-09-09T08:19:51;20.25;;;10.57;;
60665;SDS011;59128;44.642;21.188;2022-09-09T08:22:17;24.75;;;12.35;;
60665;SDS011;59128;44.642;21.188;2022-09-09T08:24:43;22.65;;;14.27;;
60665;SDS011;59128;44.642;21.188;2022-09-09T08:27:09;26.77;;;16.23;;
60665;SDS011;59128;44.642;21.188;2022-09-09T08:29:35;32.33;;;17.73;;
60665;SDS011;59128;44.642;21.188;2022-09-09T08:32:02;69.63;;;37.92;;
60665;SDS011;59128;44.642;21.188;2022-09-09T08:34:29;56.65;;;33.50;;
60665;SDS011;59128;44.642;21.188;2022-09-09T08:36:56;48.60;;;26.45;;
60665;SDS011;59128;44.642;21.188;2022-09-09T08:39:22;38.88;;;20.88;;
60665;SDS011;59128;44.642;21.188;2022-09-09T08:41:56;25.35;;;13.93;;
60665;SDS011;59128;44.642;21.188;2022-09-09T08:51:53;13.20;;;8.98;;
60665;SDS011;59128;44.642;21.188;2022-09-09T08:54:20;13.75;;;7.57;;
60665;SDS011;59128;44.642;21.188;2022-09-09T08:56:47;12.20;;;7.55;;
60665;SDS011;59128;44.642;21.188;2022-09-09T08:59:15;12.45;;;7.10;;
60665;SDS011;59128;44.642;21.188;2022-09-09T09:11:52;11.75;;;7.20;;
60665;SDS011;59128;44.642;21.188;2022-09-09T09:14:22;10.75;;;7.65;;
60665;SDS011;59128;44.642;21.188;2022-09-09T09:19:18;12.00;;;6.88;;
60665;SDS011;59128;44.642;21.188;2022-09-09T09:24:25;17.48;;;7.97;;
60665;SDS011;59128;44.642;21.188;2022-09-09T09:26:53;10.35;;;7.38;;
60665;SDS011;59128;44.642;21.188;2022-09-09T09:29:20;11.00;;;7.28;;
60665;SDS011;59128;44.642;21.188;2022-09-09T09:31:56;12.27;;;6.93;;
60665;SDS011;59128;44.642;21.188;2022-09-09T09:34:26;10.02;;;6.97;;
60665;SDS011;59128;44.642;21.188;2022-09-09T09:36:57;10.88;;;6.60;;
60665;SDS011;59128;44.642;21.188;2022-09-09T09:39:30;11.45;;;6.30;;
60665;SDS011;59128;44.642;21.188;2022-09-09T09:42:07;7.90;;;6.50;;
60665;SDS011;59128;44.642;21.188;2022-09-09T09:44:35;11.85;;;6.38;;
60665;SDS011;59128;44.642;21.188;2022-09-09T09:47:06;10.55;;;6.57;;
60665;SDS011;59128;44.642;21.188;2022-09-09T09:49:32;11.65;;;7.03;;
60665;SDS011;59128;44.642;21.188;2022-09-09T09:52:05;10.63;;;6.50;;
60665;SDS011;59128;44.642;21.188;2022-09-09T09:54:33;17.02;;;7.00;;
60665;SDS011;59128;44.642;21.188;2022-09-09T09:57:10;12.02;;;6.88;;
60665;SDS011;59128;44.642;21.188;2022-09-09T09:59:37;11.82;;;6.25;;
60665;SDS011;59128;44.642;21.188;2022-09-09T10:02:23;10.02;;;6.38;;
60665;SDS011;59128;44.642;21.188;2022-09-09T10:05:05;8.10;;;6.10;;
60665;SDS011;59128;44.642;21.188;2022-09-09T10:07:31;9.38;;;6.53;;
60665;SDS011;59128;44.642;21.188;2022-09-09T10:09:58;11.40;;;6.60;;
60665;SDS011;59128;44.642;21.188;2022-09-09T10:12:37;12.52;;;6.70;;
60665;SDS011;59128;44.642;21.188;2022-09-09T10:22:50;7.25;;;6.03;;
60665;SDS011;59128;44.642;21.188;2022-09-09T10:40:33;11.13;;;6.40;;
60665;SDS011;59128;44.642;21.188;2022-09-09T10:43:36;13.00;;;6.95;;
60665;SDS011;59128;44.642;21.188;2022-09-09T10:46:00;10.48;;;6.72;;
60665;SDS011;59128;44.642;21.188;2022-09-09T10:48:33;11.93;;;6.47;;
60665;SDS011;59128;44.642;21.188;2022-09-09T10:53:54;10.50;;;6.75;;
60665;SDS011;59128;44.642;21.188;2022-09-09T10:56:24;13.10;;;6.82;;
60665;SDS011;59128;44.642;21.188;2022-09-09T10:58:53;9.88;;;6.03;;
60665;SDS011;59128;44.642;21.188;2022-09-09T11:01:23;14.10;;;8.20;;
60665;SDS011;59128;44.642;21.188;2022-09-09T11:03:54;9.35;;;6.22;;
60665;SDS011;59128;44.642;21.188;2022-09-09T11:06:25;10.37;;;6.90;;
60665;SDS011;59128;44.642;21.188;2022-09-09T11:08:54;11.27;;;6.35;;
60665;SDS011;59128;44.642;21.188;2022-09-09T11:11:24;13.10;;;7.20;;
60665;SDS011;59128;44.642;21.188;2022-09-09T11:16:22;22.33;;;12.75;;
60665;SDS011;59128;44.642;21.188;2022-09-09T11:18:50;9.30;;;5.70;;
60665;SDS011;59128;44.642;21.188;2022-09-09T11:21:23;8.75;;;5.63;;
60665;SDS011;59128;44.642;21.188;2022-09-09T11:23:55;17.98;;;11.35;;
60665;SDS011;59128;44.642;21.188;2022-09-09T11:26:29;19.23;;;6.30;;
60665;SDS011;59128;44.642;21.188;2022-09-09T11:34:02;7.43;;;5.55;;
60665;SDS011;59128;44.642;21.188;2022-09-09T11:41:33;12.25;;;5.70;;
60665;SDS011;59128;44.642;21.188;2022-09-09T11:44:08;7.75;;;4.72;;
60665;SDS011;59128;44.642;21.188;2022-09-09T11:46:36;9.18;;;7.45;;
60665;SDS011;59128;44.642;21.188;2022-09-09T11:49:05;7.72;;;5.38;;
60665;SDS011;59128;44.642;21.188;2022-09-09T11:51:33;9.05;;;5.40;;
60665;SDS011;59128;44.642;21.188;2022-09-09T11:54:25;8.80;;;4.60;;
60665;SDS011;59128;44.642;21.188;2022-09-09T11:56:46;7.90;;;4.25;;
60665;SDS011;59128;44.642;21.188;2022-09-09T12:12:04;8.30;;;4.30;;
60665;SDS011;59128;44.642;21.188;2022-09-09T12:14:38;8.57;;;4.25;;
60665;SDS011;59128;44.642;21.188;2022-09-09T12:17:17;8.48;;;3.80;;
60665;SDS011;59128;44.642;21.188;2022-09-09T12:19:44;7.80;;;4.47;;
60665;SDS011;59128;44.642;21.188;2022-09-09T12:22:20;8.45;;;4.40;;
60665;SDS011;59128;44.642;21.188;2022-09-09T12:24:52;6.68;;;4.70;;
60665;SDS011;59128;44.642;21.188;2022-09-09T12:27:24;8.60;;;4.13;;
60665;SDS011;59128;44.642;21.188;2022-09-09T12:29:58;8.02;;;4.93;;
60665;SDS011;59128;44.642;21.188;2022-09-09T12:32:27;7.88;;;4.63;;
60665;SDS011;59128;44.642;21.188;2022-09-09T12:35:02;7.05;;;4.97;;
60665;SDS011;59128;44.642;21.188;2022-09-09T12:37:36;7.63;;;5.10;;
60665;SDS011;59128;44.642;21.188;2022-09-09T12:40:04;7.50;;;4.32;;
60665;SDS011;59128;44.642;21.188;2022-09-09T12:42:30;7.00;;;4.80;;
60665;SDS011;59128;44.642;21.188;2022-09-09T12:45:00;10.43;;;7.75;;
60665;SDS011;59128;44.642;21.188;2022-09-09T12:47:37;9.65;;;5.60;;
60665;SDS011;59128;44.642;21.188;2022-09-09T12:50:10;11.45;;;7.90;;
60665;SDS011;59128;44.642;21.188;2022-09-09T12:52:41;10.25;;;6.15;;
60665;SDS011;59128;44.642;21.188;2022-09-09T12:55:15;8.15;;;5.57;;
60665;SDS011;59128;44.642;21.188;2022-09-09T12:57:42;7.05;;;4.90;;
60665;SDS011;59128;44.642;21.188;2022-09-09T13:00:16;9.95;;;4.90;;
60665;SDS011;59128;44.642;21.188;2022-09-09T13:02:46;8.20;;;5.13;;
60665;SDS011;59128;44.642;21.188;2022-09-09T13:08:10;8.48;;;5.72;;
60665;SDS011;59128;44.642;21.188;2022-09-09T13:10:40;15.68;;;12.15;;
60665;SDS011;59128;44.642;21.188;2022-09-09T13:13:14;5.75;;;4.45;;
60665;SDS011;59128;44.642;21.188;2022-09-09T13:15:47;7.88;;;5.30;;
60665;SDS011;59128;44.642;21.188;2022-09-09T13:18:13;7.95;;;4.32;;
60665;SDS011;59128;44.642;21.188;2022-09-09T13:20:44;11.80;;;4.13;;
60665;SDS011;59128;44.642;21.188;2022-09-09T13:23:11;6.75;;;3.88;;
60665;SDS011;59128;44.642;21.188;2022-09-09T13:25:37;5.85;;;3.72;;
60665;SDS011;59128;44.642;21.188;2022-09-09T13:28:05;13.15;;;4.93;;
60665;SDS011;59128;44.642;21.188;2022-09-09T13:33:06;10.95;;;4.60;;
60665;SDS011;59128;44.642;21.188;2022-09-09T13:37:58;6.63;;;4.05;;
60665;SDS011;59128;44.642;21.188;2022-09-09T13:40:25;9.82;;;4.63;;
60665;SDS011;59128;44.642;21.188;2022-09-09T13:42:55;9.25;;;3.97;;
60665;SDS011;59128;44.642;21.188;2022-09-09T13:45:22;6.13;;;3.92;;
60665;SDS011;59128;44.642;21.188;2022-09-09T13:47:51;5.32;;;4.22;;
60665;SDS011;59128;44.642;21.188;2022-09-09T13:50:25;7.75;;;4.18;;
60665;SDS011;59128;44.642;21.188;2022-09-09T13:52:52;5.78;;;4.18;;
60665;SDS011;59128;44.642;21.188;2022-09-09T13:55:19;7.93;;;4.22;;
60665;SDS011;59128;44.642;21.188;2022-09-09T13:57:59;6.85;;;4.03;;
60665;SDS011;59128;44.642;21.188;2022-09-09T14:00:27;6.85;;;4.35;;
60665;SDS011;59128;44.642;21.188;2022-09-09T14:02:54;8.38;;;4.05;;
60665;SDS011;59128;44.642;21.188;2022-09-09T14:05:20;7.18;;;4.70;;
60665;SDS011;59128;44.642;21.188;2022-09-09T14:07:47;10.38;;;3.92;;
60665;SDS011;59128;44.642;21.188;2022-09-09T14:10:13;6.72;;;4.50;;
60665;SDS011;59128;44.642;21.188;2022-09-09T14:12:39;9.18;;;4.25;;
60665;SDS011;59128;44.642;21.188;2022-09-09T14:15:06;7.03;;;3.83;;
60665;SDS011;59128;44.642;21.188;2022-09-09T14:17:32;8.45;;;4.45;;
60665;SDS011;59128;44.642;21.188;2022-09-09T14:20:01;9.23;;;4.18;;
60665;SDS011;59128;44.642;21.188;2022-09-09T14:22:27;5.28;;;4.00;;
60665;SDS011;59128;44.642;21.188;2022-09-09T14:24:53;6.03;;;3.85;;
60665;SDS011;59128;44.642;21.188;2022-09-09T14:27:19;8.30;;;3.42;;
60665;SDS011;59128;44.642;21.188;2022-09-09T14:29:45;6.90;;;4.50;;
60665;SDS011;59128;44.642;21.188;2022-09-09T14:32:12;8.25;;;4.13;;
60665;SDS011;59128;44.642;21.188;2022-09-09T14:34:38;17.17;;;4.10;;
60665;SDS011;59128;44.642;21.188;2022-09-09T14:37:04;8.80;;;3.72;;
60665;SDS011;59128;44.642;21.188;2022-09-09T14:39:30;6.72;;;3.67;;
60665;SDS011;59128;44.642;21.188;2022-09-09T14:41:56;5.35;;;3.75;;
60665;SDS011;59128;44.642;21.188;2022-09-09T14:44:23;6.75;;;3.90;;
60665;SDS011;59128;44.642;21.188;2022-09-09T14:46:49;10.35;;;4.22;;
60665;SDS011;59128;44.642;21.188;2022-09-09T14:49:19;11.35;;;4.10;;
60665;SDS011;59128;44.642;21.188;2022-09-09T14:51:45;11.18;;;3.90;;
60665;SDS011;59128;44.642;21.188;2022-09-09T14:54:11;10.30;;;3.70;;
60665;SDS011;59128;44.642;21.188;2022-09-09T14:56:37;6.38;;;2.97;;
60665;SDS011;59128;44.642;21.188;2022-09-09T14:59:03;6.03;;;3.72;;
60665;SDS011;59128;44.642;21.188;2022-09-09T15:01:30;6.22;;;3.10;;
60665;SDS011;59128;44.642;21.188;2022-09-09T15:04:00;6.97;;;2.75;;
60665;SDS011;59128;44.642;21.188;2022-09-09T15:06:28;6.45;;;3.30;;
60665;SDS011;59128;44.642;21.188;2022-09-09T15:08:55;3.85;;;3.08;;
60665;SDS011;59128;44.642;21.188;2022-09-09T15:11:25;5.57;;;3.42;;
60665;SDS011;59128;44.642;21.188;2022-09-09T15:13:52;7.03;;;3.58;;
60665;SDS011;59128;44.642;21.188;2022-09-09T15:16:19;4.90;;;3.33;;
60665;SDS011;59128;44.642;21.188;2022-09-09T15:18:46;6.75;;;3.80;;
60665;SDS011;59128;44.642;21.188;2022-09-09T15:21:14;5.88;;;3.47;;
60665;SDS011;59128;44.642;21.188;2022-09-09T15:23:40;5.70;;;3.25;;
60665;SDS011;59128;44.642;21.188;2022-09-09T15:26:06;5.78;;;3.22;;
60665;SDS011;59128;44.642;21.188;2022-09-09T15:28:33;12.35;;;3.95;;
60665;SDS011;59128;44.642;21.188;2022-09-09T15:31:07;5.28;;;3.00;;
60665;SDS011;59128;44.642;21.188;2022-09-09T15:33:34;5.60;;;3.20;;
60665;SDS011;59128;44.642;21.188;2022-09-09T15:38:39;6.18;;;3.85;;
60665;SDS011;59128;44.642;21.188;2022-09-09T15:41:05;6.00;;;4.03;;
60665;SDS011;59128;44.642;21.188;2022-09-09T15:43:31;5.82;;;3.17;;
60665;SDS011;59128;44.642;21.188;2022-09-09T15:45:59;7.13;;;3.30;;
60665;SDS011;59128;44.642;21.188;2022-09-09T15:48:32;4.45;;;3.10;;
60665;SDS011;59128;44.642;21.188;2022-09-09T15:51:01;7.20;;;3.30;;
60665;SDS011;59128;44.642;21.188;2022-09-09T15:53:28;6.38;;;3.05;;
60665;SDS011;59128;44.642;21.188;2022-09-09T15:55:55;6.55;;;3.88;;
60665;SDS011;59128;44.642;21.188;2022-09-09T15:58:21;10.15;;;4.35;;
60665;SDS011;59128;44.642;21.188;2022-09-09T16:00:47;4.43;;;3.53;;
60665;SDS011;59128;44.642;21.188;2022-09-09T16:03:13;5.13;;;3.35;;
60665;SDS011;59128;44.642;21.188;2022-09-09T16:05:39;6.28;;;3.50;;
60665;SDS011;59128;44.642;21.188;2022-09-09T16:08:05;8.73;;;3.97;;
60665;SDS011;59128;44.642;21.188;2022-09-09T16:10:31;7.47;;;3.45;;
60665;SDS011;59128;44.642;21.188;2022-09-09T16:12:57;6.93;;;3.55;;
60665;SDS011;59128;44.642;21.188;2022-09-09T16:15:24;6.85;;;3.45;;
60665;SDS011;59128;44.642;21.188;2022-09-09T16:17:52;6.57;;;3.25;;
60665;SDS011;59128;44.642;21.188;2022-09-09T16:20:19;7.43;;;3.58;;
60665;SDS011;59128;44.642;21.188;2022-09-09T16:22:45;7.50;;;3.85;;
60665;SDS011;59128;44.642;21.188;2022-09-09T16:25:11;8.48;;;4.82;;
60665;SDS011;59128;44.642;21.188;2022-09-09T16:27:37;9.30;;;5.30;;
60665;SDS011;59128;44.642;21.188;2022-09-09T16:30:03;7.85;;;4.63;;
60665;SDS011;59128;44.642;21.188;2022-09-09T16:32:29;10.10;;;4.53;;
60665;SDS011;59128;44.642;21.188;2022-09-09T16:34:55;10.48;;;4.82;;
60665;SDS011;59128;44.642;21.188;2022-09-09T16:37:21;7.82;;;4.30;;
60665;SDS011;59128;44.642;21.188;2022-09-09T16:39:47;6.93;;;3.80;;
60665;SDS011;59128;44.642;21.188;2022-09-09T16:42:15;7.70;;;4.05;;
60665;SDS011;59128;44.642;21.188;2022-09-09T16:44:42;10.88;;;4.53;;
60665;SDS011;59128;44.642;21.188;2022-09-09T16:47:08;8.13;;;4.65;;